sensor_id;sensor_type;location;lat;lon;timestamp;pressure;altitude;pressure_sealevel;temperature;humidity
61086;BME280;46967;48.876;2.136;2023-05-09T00:01:29;101576.41;;;44.26;14.09
61086;BME280;46967;48.876;2.136;2023-05-09T00:03:56;101570.69;;;44.27;14.34
61086;BME280;46967;48.876;2.136;2023-05-09T00:06:22;101566.53;;;44.25;14.14
61086;BME280;46967;48.876;2.136;2023-05-09T00:08:48;101568.88;;;44.16;14.23
61086;BME280;46967;48.876;2.136;2023-05-09T00:11:13;101564.59;;;44.03;14.21
61086;BME280;46967;48.876;2.136;2023-05-09T00:13:38;101562.94;;;44.02;14.44
61086;BME280;46967;48.876;2.136;2023-05-09T00:16:04;101556.81;;;43.95;14.14
61086;BME280;46967;48.876;2.136;2023-05-09T00:18:30;101557.50;;;43.85;14.52
61086;BME280;46967;48.876;2.136;2023-05-09T00:20:58;101552.03;;;43.68;14.51
61086;BME280;46967;48.876;2.136;2023-05-09T00:23:23;101547.41;;;43.69;14.66
61086;BME280;46967;48.876;2.136;2023-05-09T00:25:48;101544.34;;;43.65;14.63
61086;BME280;46967;48.876;2.136;2023-05-09T00:28:14;101530.84;;;43.75;14.54
61086;BME280;46967;48.876;2.136;2023-05-09T00:30:39;101536.81;;;43.72;14.58
61086;BME280;46967;48.876;2.136;2023-05-09T00:33:04;101535.56;;;43.63;14.66
61086;BME280;46967;48.876;2.136;2023-05-09T00:35:30;101534.44;;;43.59;14.51
61086;BME280;46967;48.876;2.136;2023-05-09T00:37:56;101539.59;;;42.81;15.20
61086;BME280;46967;48.876;2.136;2023-05-09T00:40:21;101536.78;;;43.04;14.94
61086;BME280;46967;48.876;2.136;2023-05-09T00:42:47;101531.69;;;42.96;15.24
61086;BME280;46967;48.876;2.136;2023-05-09T00:45:12;101528.44;;;43.11;14.82
61086;BME280;46967;48.876;2.136;2023-05-09T00:47:37;101520.91;;;43.01;14.87
61086;BME280;46967;48.876;2.136;2023-05-09T00:50:03;101518.94;;;42.85;15.02
61086;BME280;46967;48.876;2.136;2023-05-09T00:52:29;101521.63;;;42.97;15.03
61086;BME280;46967;48.876;2.136;2023-05-09T00:54:56;101512.81;;;42.78;15.27
61086;BME280;46967;48.876;2.136;2023-05-09T00:57:22;101510.19;;;42.83;15.11
61086;BME280;46967;48.876;2.136;2023-05-09T00:59:47;101499.81;;;42.97;15.42
61086;BME280;46967;48.876;2.136;2023-05-09T01:02:15;101500.97;;;43.01;14.84
61086;BME280;46967;48.876;2.136;2023-05-09T01:04:41;101503.84;;;42.94;15.10
61086;BME280;46967;48.876;2.136;2023-05-09T01:10:22;101489.84;;;42.90;14.97
61086;BME280;46967;48.876;2.136;2023-05-09T01:13:06;101479.28;;;42.94;15.12
61086;BME280;46967;48.876;2.136;2023-05-09T01:15:45;101489.41;;;43.11;15.02
61086;BME280;46967;48.876;2.136;2023-05-09T01:18:32;101477.91;;;43.09;15.09
61086;BME280;46967;48.876;2.136;2023-05-09T01:21:05;101475.09;;;43.20;15.00
61086;BME280;46967;48.876;2.136;2023-05-09T01:26:30;101454.00;;;43.16;15.05
61086;BME280;46967;48.876;2.136;2023-05-09T01:29:26;101454.09;;;43.21;15.03
61086;BME280;46967;48.876;2.136;2023-05-09T01:31:56;101456.47;;;43.34;14.74
61086;BME280;46967;48.876;2.136;2023-05-09T01:34:25;101445.41;;;43.24;14.91
61086;BME280;46967;48.876;2.136;2023-05-09T01:36:55;101451.25;;;43.33;14.96
61086;BME280;46967;48.876;2.136;2023-05-09T01:39:23;101447.38;;;43.29;14.88
61086;BME280;46967;48.876;2.136;2023-05-09T01:41:51;101443.50;;;43.24;14.84
61086;BME280;46967;48.876;2.136;2023-05-09T01:44:19;101439.53;;;42.98;14.95
61086;BME280;46967;48.876;2.136;2023-05-09T01:46:46;101448.66;;;42.92;15.40
61086;BME280;46967;48.876;2.136;2023-05-09T01:49:12;101442.47;;;42.80;15.39
61086;BME280;46967;48.876;2.136;2023-05-09T01:51:38;101441.88;;;43.06;15.09
61086;BME280;46967;48.876;2.136;2023-05-09T01:54:04;101440.09;;;42.83;15.51
61086;BME280;46967;48.876;2.136;2023-05-09T01:56:31;101433.81;;;42.83;15.13
61086;BME280;46967;48.876;2.136;2023-05-09T01:58:57;101425.47;;;42.89;15.19
61086;BME280;46967;48.876;2.136;2023-05-09T02:01:23;101433.00;;;42.99;15.22
61086;BME280;46967;48.876;2.136;2023-05-09T02:03:50;101426.59;;;42.94;15.22
61086;BME280;46967;48.876;2.136;2023-05-09T02:06:19;101429.31;;;42.94;15.03
61086;BME280;46967;48.876;2.136;2023-05-09T02:08:47;101429.56;;;42.92;15.31
61086;BME280;46967;48.876;2.136;2023-05-09T02:11:12;101425.28;;;42.79;15.40
61086;BME280;46967;48.876;2.136;2023-05-09T02:13:38;101429.59;;;42.75;15.25
61086;BME280;46967;48.876;2.136;2023-05-09T02:16:05;101439.41;;;42.93;15.25
61086;BME280;46967;48.876;2.136;2023-05-09T02:18:32;101428.75;;;42.92;15.38
61086;BME280;46967;48.876;2.136;2023-05-09T02:20:58;101436.50;;;42.66;15.48
61086;BME280;46967;48.876;2.136;2023-05-09T02:23:24;101428.00;;;42.62;15.30
61086;BME280;46967;48.876;2.136;2023-05-09T02:25:49;101426.41;;;42.66;15.56
61086;BME280;46967;48.876;2.136;2023-05-09T02:28:17;101431.31;;;42.24;15.77
61086;BME280;46967;48.876;2.136;2023-05-09T02:30:44;101427.75;;;42.64;15.55
61086;BME280;46967;48.876;2.136;2023-05-09T02:33:11;101432.47;;;42.68;15.35
61086;BME280;46967;48.876;2.136;2023-05-09T02:35:41;101425.09;;;42.69;15.47
61086;BME280;46967;48.876;2.136;2023-05-09T02:38:06;101422.47;;;42.45;15.63
61086;BME280;46967;48.876;2.136;2023-05-09T02:40:32;101423.22;;;42.41;15.81
61086;BME280;46967;48.876;2.136;2023-05-09T02:42:58;101425.44;;;42.44;15.80
61086;BME280;46967;48.876;2.136;2023-05-09T02:45:24;101421.06;;;42.43;15.59
61086;BME280;46967;48.876;2.136;2023-05-09T02:47:49;101416.50;;;42.60;15.71
61086;BME280;46967;48.876;2.136;2023-05-09T02:50:15;101421.22;;;42.65;15.89
61086;BME280;46967;48.876;2.136;2023-05-09T02:52:40;101407.03;;;42.51;16.05
61086;BME280;46967;48.876;2.136;2023-05-09T02:55:06;101410.06;;;42.66;15.54
61086;BME280;46967;48.876;2.136;2023-05-09T02:57:32;101410.13;;;42.71;15.79
61086;BME280;46967;48.876;2.136;2023-05-09T02:59:57;101403.28;;;42.69;15.71
61086;BME280;46967;48.876;2.136;2023-05-09T03:02:23;101410.41;;;42.41;16.23
61086;BME280;46967;48.876;2.136;2023-05-09T03:04:48;101401.94;;;42.26;16.33
61086;BME280;46967;48.876;2.136;2023-05-09T03:07:14;101410.31;;;42.36;16.12
61086;BME280;46967;48.876;2.136;2023-05-09T03:09:39;101414.06;;;42.06;16.56
61086;BME280;46967;48.876;2.136;2023-05-09T03:12:04;101419.66;;;41.99;16.31
61086;BME280;46967;48.876;2.136;2023-05-09T03:14:30;101416.41;;;42.26;16.17
61086;BME280;46967;48.876;2.136;2023-05-09T03:16:55;101409.88;;;42.56;16.13
61086;BME280;46967;48.876;2.136;2023-05-09T03:19:21;101414.19;;;42.69;16.24
61086;BME280;46967;48.876;2.136;2023-05-09T03:21:46;101406.59;;;42.71;15.91
61086;BME280;46967;48.876;2.136;2023-05-09T03:24:12;101404.09;;;42.69;16.05
61086;BME280;46967;48.876;2.136;2023-05-09T03:26:37;101401.25;;;42.18;16.50
61086;BME280;46967;48.876;2.136;2023-05-09T03:29:03;101393.09;;;42.07;16.24
61086;BME280;46967;48.876;2.136;2023-05-09T03:31:28;101396.09;;;42.34;16.20
61086;BME280;46967;48.876;2.136;2023-05-09T03:33:54;101392.94;;;42.25;16.55
61086;BME280;46967;48.876;2.136;2023-05-09T03:36:19;101401.13;;;41.85;16.24
61086;BME280;46967;48.876;2.136;2023-05-09T03:38:44;101385.28;;;42.10;16.27
61086;BME280;46967;48.876;2.136;2023-05-09T03:41:12;101385.50;;;42.09;16.18
61086;BME280;46967;48.876;2.136;2023-05-09T03:43:37;101391.16;;;40.23;17.12
61086;BME280;46967;48.876;2.136;2023-05-09T03:46:03;101386.72;;;40.83;16.83
61086;BME280;46967;48.876;2.136;2023-05-09T03:48:28;101385.16;;;40.63;17.06
61086;BME280;46967;48.876;2.136;2023-05-09T03:50:53;101386.53;;;40.54;16.97
61086;BME280;46967;48.876;2.136;2023-05-09T03:53:19;101379.00;;;41.22;16.64
61086;BME280;46967;48.876;2.136;2023-05-09T03:55:44;101374.16;;;41.36;16.26
61086;BME280;46967;48.876;2.136;2023-05-09T03:58:10;101366.94;;;41.18;16.79
61086;BME280;46967;48.876;2.136;2023-05-09T04:00:36;101359.69;;;41.23;16.49
61086;BME280;46967;48.876;2.136;2023-05-09T04:03:02;101362.94;;;41.32;16.40
61086;BME280;46967;48.876;2.136;2023-05-09T04:05:28;101363.72;;;41.21;16.54
61086;BME280;46967;48.876;2.136;2023-05-09T04:07:53;101348.50;;;40.54;16.99
61086;BME280;46967;48.876;2.136;2023-05-09T04:10:19;101360.09;;;40.61;17.24
61086;BME280;46967;48.876;2.136;2023-05-09T04:12:44;101346.13;;;40.27;17.56
61086;BME280;46967;48.876;2.136;2023-05-09T04:15:10;101347.94;;;40.33;17.37
61086;BME280;46967;48.876;2.136;2023-05-09T04:17:35;101347.09;;;40.63;17.03
61086;BME280;46967;48.876;2.136;2023-05-09T04:20:01;101342.22;;;40.42;17.42
61086;BME280;46967;48.876;2.136;2023-05-09T04:22:27;101337.53;;;40.30;17.22
61086;BME280;46967;48.876;2.136;2023-05-09T04:24:52;101336.34;;;40.56;17.14
61086;BME280;46967;48.876;2.136;2023-05-09T04:27:18;101337.38;;;40.44;17.27
61086;BME280;46967;48.876;2.136;2023-05-09T04:29:43;101333.88;;;40.79;17.09
61086;BME280;46967;48.876;2.136;2023-05-09T04:32:08;101329.22;;;40.44;17.00
61086;BME280;46967;48.876;2.136;2023-05-09T04:34:34;101325.34;;;40.51;17.10
61086;BME280;46967;48.876;2.136;2023-05-09T04:36:59;101319.91;;;40.51;17.13
61086;BME280;46967;48.876;2.136;2023-05-09T04:39:25;101314.84;;;40.25;17.15
61086;BME280;46967;48.876;2.136;2023-05-09T04:41:50;101314.69;;;40.50;17.57
61086;BME280;46967;48.876;2.136;2023-05-09T04:44:16;101314.59;;;40.26;17.31
61086;BME280;46967;48.876;2.136;2023-05-09T04:46:42;101316.44;;;40.44;17.21
61086;BME280;46967;48.876;2.136;2023-05-09T04:49:08;101311.75;;;40.21;17.21
61086;BME280;46967;48.876;2.136;2023-05-09T04:51:33;101307.16;;;40.33;16.61
61086;BME280;46967;48.876;2.136;2023-05-09T04:53:59;101306.53;;;40.50;16.76
61086;BME280;46967;48.876;2.136;2023-05-09T04:56:24;101302.53;;;40.64;16.75
61086;BME280;46967;48.876;2.136;2023-05-09T04:58:50;101308.50;;;40.85;16.70
61086;BME280;46967;48.876;2.136;2023-05-09T05:01:15;101298.75;;;40.65;16.62
61086;BME280;46967;48.876;2.136;2023-05-09T05:03:41;101302.25;;;40.42;17.06
61086;BME280;46967;48.876;2.136;2023-05-09T05:06:06;101297.56;;;40.19;17.25
61086;BME280;46967;48.876;2.136;2023-05-09T05:08:32;101299.19;;;40.50;16.71
61086;BME280;46967;48.876;2.136;2023-05-09T05:10:57;101292.13;;;40.73;16.74
61086;BME280;46967;48.876;2.136;2023-05-09T05:13:22;101291.19;;;40.13;17.38
61086;BME280;46967;48.876;2.136;2023-05-09T05:15:48;101289.66;;;40.60;16.81
61086;BME280;46967;48.876;2.136;2023-05-09T05:18:14;101278.91;;;41.00;16.60
61086;BME280;46967;48.876;2.136;2023-05-09T05:20:40;101286.59;;;41.39;16.50
61086;BME280;46967;48.876;2.136;2023-05-09T05:23:05;101281.47;;;41.42;16.63
61086;BME280;46967;48.876;2.136;2023-05-09T05:25:31;101275.47;;;41.69;16.74
61086;BME280;46967;48.876;2.136;2023-05-09T05:27:56;101272.75;;;41.40;16.80
61086;BME280;46967;48.876;2.136;2023-05-09T05:30:21;101280.34;;;41.67;16.26
61086;BME280;46967;48.876;2.136;2023-05-09T05:32:47;101266.63;;;41.74;16.51
61086;BME280;46967;48.876;2.136;2023-05-09T05:35:12;101270.09;;;41.45;16.75
61086;BME280;46967;48.876;2.136;2023-05-09T05:37:38;101268.66;;;41.55;16.42
61086;BME280;46967;48.876;2.136;2023-05-09T05:40:05;101263.78;;;41.57;16.63
61086;BME280;46967;48.876;2.136;2023-05-09T05:42:31;101261.84;;;41.40;16.58
61086;BME280;46967;48.876;2.136;2023-05-09T05:44:57;101261.78;;;40.88;16.89
61086;BME280;46967;48.876;2.136;2023-05-09T05:47:31;101269.22;;;41.16;16.91
61086;BME280;46967;48.876;2.136;2023-05-09T05:49:58;101264.22;;;40.78;17.12
61086;BME280;46967;48.876;2.136;2023-05-09T05:52:23;101263.25;;;41.19;16.83
61086;BME280;46967;48.876;2.136;2023-05-09T05:54:48;101255.22;;;41.36;16.84
61086;BME280;46967;48.876;2.136;2023-05-09T05:57:14;101253.72;;;41.57;16.77
61086;BME280;46967;48.876;2.136;2023-05-09T05:59:39;101238.13;;;40.77;17.24
61086;BME280;46967;48.876;2.136;2023-05-09T06:02:04;101242.69;;;41.23;16.67
61086;BME280;46967;48.876;2.136;2023-05-09T06:04:30;101235.13;;;41.14;16.86
61086;BME280;46967;48.876;2.136;2023-05-09T06:06:56;101238.44;;;41.16;17.05
61086;BME280;46967;48.876;2.136;2023-05-09T06:09:21;101229.34;;;40.98;17.10
61086;BME280;46967;48.876;2.136;2023-05-09T06:11:46;101233.41;;;40.96;17.14
61086;BME280;46967;48.876;2.136;2023-05-09T06:14:12;101233.59;;;40.59;17.13
61086;BME280;46967;48.876;2.136;2023-05-09T06:16:37;101221.19;;;40.98;17.12
61086;BME280;46967;48.876;2.136;2023-05-09T06:19:03;101223.91;;;40.51;17.18
61086;BME280;46967;48.876;2.136;2023-05-09T06:21:28;101225.13;;;40.13;17.53
61086;BME280;46967;48.876;2.136;2023-05-09T06:23:54;101227.19;;;39.68;17.78
61086;BME280;46967;48.876;2.136;2023-05-09T06:26:19;101223.91;;;39.97;17.70
61086;BME280;46967;48.876;2.136;2023-05-09T06:28:46;101216.31;;;40.29;17.48
61086;BME280;46967;48.876;2.136;2023-05-09T06:31:11;101210.66;;;39.70;17.84
61086;BME280;46967;48.876;2.136;2023-05-09T06:33:37;101203.47;;;39.64;17.98
61086;BME280;46967;48.876;2.136;2023-05-09T06:36:02;101192.72;;;40.42;17.18
61086;BME280;46967;48.876;2.136;2023-05-09T06:38:27;101206.81;;;40.08;17.45
61086;BME280;46967;48.876;2.136;2023-05-09T06:40:53;101195.69;;;39.49;17.75
61086;BME280;46967;48.876;2.136;2023-05-09T06:43:18;101198.94;;;39.88;17.83
61086;BME280;46967;48.876;2.136;2023-05-09T06:45:44;101193.94;;;40.15;17.47
61086;BME280;46967;48.876;2.136;2023-05-09T06:48:09;101199.00;;;39.70;17.83
61086;BME280;46967;48.876;2.136;2023-05-09T06:50:35;101196.09;;;40.13;17.58
61086;BME280;46967;48.876;2.136;2023-05-09T06:53:00;101178.84;;;40.31;17.43
61086;BME280;46967;48.876;2.136;2023-05-09T06:55:26;101181.34;;;40.33;17.19
61086;BME280;46967;48.876;2.136;2023-05-09T06:57:59;101188.22;;;39.93;17.97
61086;BME280;46967;48.876;2.136;2023-05-09T07:00:25;101182.66;;;39.88;17.72
61086;BME280;46967;48.876;2.136;2023-05-09T07:02:51;101173.91;;;40.40;17.40
61086;BME280;46967;48.876;2.136;2023-05-09T07:05:16;101169.78;;;39.95;17.85
61086;BME280;46967;48.876;2.136;2023-05-09T07:07:41;101168.78;;;39.66;17.97
61086;BME280;46967;48.876;2.136;2023-05-09T07:10:07;101162.50;;;40.08;17.46
61086;BME280;46967;48.876;2.136;2023-05-09T07:12:32;101162.66;;;40.36;17.52
61086;BME280;46967;48.876;2.136;2023-05-09T07:14:58;101165.00;;;39.67;17.55
61086;BME280;46967;48.876;2.136;2023-05-09T07:17:24;101162.69;;;38.78;18.51
61086;BME280;46967;48.876;2.136;2023-05-09T07:19:50;101150.97;;;38.59;18.83
61086;BME280;46967;48.876;2.136;2023-05-09T07:22:15;101145.75;;;39.68;17.86
61086;BME280;46967;48.876;2.136;2023-05-09T07:24:40;101138.34;;;39.45;18.04
61086;BME280;46967;48.876;2.136;2023-05-09T07:27:06;101145.00;;;39.31;18.40
61086;BME280;46967;48.876;2.136;2023-05-09T07:29:31;101140.28;;;38.46;18.75
61086;BME280;46967;48.876;2.136;2023-05-09T07:31:56;101134.19;;;39.12;18.52
61086;BME280;46967;48.876;2.136;2023-05-09T07:34:22;101133.78;;;39.27;18.14
61086;BME280;46967;48.876;2.136;2023-05-09T07:36:49;101136.38;;;39.53;18.28
61086;BME280;46967;48.876;2.136;2023-05-09T07:39:14;101137.03;;;38.81;18.63
61086;BME280;46967;48.876;2.136;2023-05-09T07:41:41;101125.50;;;39.83;17.80
61086;BME280;46967;48.876;2.136;2023-05-09T07:44:06;101122.94;;;40.00;17.79
61086;BME280;46967;48.876;2.136;2023-05-09T07:46:36;101123.91;;;40.06;17.79
61086;BME280;46967;48.876;2.136;2023-05-09T07:49:02;101115.41;;;40.02;17.87
61086;BME280;46967;48.876;2.136;2023-05-09T07:51:28;101114.66;;;40.78;17.60
61086;BME280;46967;48.876;2.136;2023-05-09T07:53:53;101111.28;;;40.47;17.47
61086;BME280;46967;48.876;2.136;2023-05-09T07:56:20;101110.06;;;40.78;17.41
61086;BME280;46967;48.876;2.136;2023-05-09T07:58:47;101117.41;;;40.54;17.45
61086;BME280;46967;48.876;2.136;2023-05-09T08:01:12;101102.16;;;40.65;17.47
61086;BME280;46967;48.876;2.136;2023-05-09T08:03:38;101110.63;;;40.80;17.44
61086;BME280;46967;48.876;2.136;2023-05-09T08:06:03;101102.88;;;39.59;18.05
61086;BME280;46967;48.876;2.136;2023-05-09T08:08:28;101100.72;;;39.19;19.06
61086;BME280;46967;48.876;2.136;2023-05-09T08:10:54;101101.94;;;40.43;17.67
61086;BME280;46967;48.876;2.136;2023-05-09T08:13:20;101098.09;;;39.42;18.47
61086;BME280;46967;48.876;2.136;2023-05-09T08:15:46;101098.50;;;40.00;18.32
61086;BME280;46967;48.876;2.136;2023-05-09T08:18:12;101092.44;;;39.86;18.18
61086;BME280;46967;48.876;2.136;2023-05-09T08:20:37;101094.25;;;40.04;18.02
61086;BME280;46967;48.876;2.136;2023-05-09T08:23:02;101084.69;;;40.13;17.87
61086;BME280;46967;48.876;2.136;2023-05-09T08:25:28;101089.94;;;39.42;18.49
61086;BME280;46967;48.876;2.136;2023-05-09T08:27:53;101082.25;;;39.58;18.48
61086;BME280;46967;48.876;2.136;2023-05-09T08:30:19;101079.28;;;39.59;18.50
61086;BME280;46967;48.876;2.136;2023-05-09T08:32:44;101075.78;;;39.82;18.39
61086;BME280;46967;48.876;2.136;2023-05-09T08:35:10;101071.56;;;39.98;18.06
61086;BME280;46967;48.876;2.136;2023-05-09T08:37:35;101066.47;;;40.26;17.92
61086;BME280;46967;48.876;2.136;2023-05-09T08:40:02;101077.59;;;40.12;18.06
61086;BME280;46967;48.876;2.136;2023-05-09T08:42:30;101066.94;;;39.87;17.93
61086;BME280;46967;48.876;2.136;2023-05-09T08:44:56;101072.38;;;40.58;17.78
61086;BME280;46967;48.876;2.136;2023-05-09T08:47:23;101068.72;;;40.41;18.00
61086;BME280;46967;48.876;2.136;2023-05-09T08:49:50;101066.72;;;40.36;17.75
61086;BME280;46967;48.876;2.136;2023-05-09T08:52:15;101069.75;;;40.63;17.64
61086;BME280;46967;48.876;2.136;2023-05-09T08:54:41;101061.88;;;39.48;18.82
61086;BME280;46967;48.876;2.136;2023-05-09T08:57:07;101059.31;;;40.43;18.10
61086;BME280;46967;48.876;2.136;2023-05-09T08:59:33;101060.59;;;40.17;18.01
61086;BME280;46967;48.876;2.136;2023-05-09T09:02:05;101047.59;;;40.19;18.22
61086;BME280;46967;48.876;2.136;2023-05-09T09:04:31;101054.44;;;40.45;18.16
61086;BME280;46967;48.876;2.136;2023-05-09T09:06:57;101050.19;;;40.37;17.96
61086;BME280;46967;48.876;2.136;2023-05-09T09:09:24;101054.81;;;40.78;17.58
61086;BME280;46967;48.876;2.136;2023-05-09T09:11:49;101047.34;;;40.56;17.92
61086;BME280;46967;48.876;2.136;2023-05-09T09:14:22;101052.69;;;41.20;17.34
61086;BME280;46967;48.876;2.136;2023-05-09T09:16:53;101046.03;;;40.59;17.95
61086;BME280;46967;48.876;2.136;2023-05-09T09:19:21;101054.97;;;39.76;18.57
61086;BME280;46967;48.876;2.136;2023-05-09T09:21:51;101054.09;;;40.82;17.52
61086;BME280;46967;48.876;2.136;2023-05-09T09:24:21;101050.78;;;40.16;17.94
61086;BME280;46967;48.876;2.136;2023-05-09T09:26:48;101050.09;;;40.73;17.48
61086;BME280;46967;48.876;2.136;2023-05-09T09:29:15;101052.69;;;40.15;17.95
61086;BME280;46967;48.876;2.136;2023-05-09T09:31:45;101055.00;;;41.00;17.27
61086;BME280;46967;48.876;2.136;2023-05-09T09:34:12;101053.88;;;40.84;17.40
61086;BME280;46967;48.876;2.136;2023-05-09T09:36:38;101052.84;;;40.85;17.13
61086;BME280;46967;48.876;2.136;2023-05-09T09:39:04;101055.97;;;40.41;17.85
61086;BME280;46967;48.876;2.136;2023-05-09T09:41:34;101055.19;;;40.05;17.57
61086;BME280;46967;48.876;2.136;2023-05-09T09:46:48;101056.50;;;40.67;17.42
61086;BME280;46967;48.876;2.136;2023-05-09T09:49:19;101052.06;;;40.49;17.59
61086;BME280;46967;48.876;2.136;2023-05-09T09:51:52;101051.16;;;41.13;17.45
61086;BME280;46967;48.876;2.136;2023-05-09T09:54:18;101050.25;;;40.78;17.21
61086;BME280;46967;48.876;2.136;2023-05-09T09:56:49;101046.44;;;40.79;17.20
61086;BME280;46967;48.876;2.136;2023-05-09T09:59:16;101033.06;;;41.18;17.28
61086;BME280;46967;48.876;2.136;2023-05-09T10:02:06;101037.41;;;41.02;17.46
61086;BME280;46967;48.876;2.136;2023-05-09T10:04:34;101038.97;;;41.15;17.29
61086;BME280;46967;48.876;2.136;2023-05-09T10:07:01;101032.28;;;41.06;17.34
61086;BME280;46967;48.876;2.136;2023-05-09T10:09:31;101040.28;;;41.41;17.00
61086;BME280;46967;48.876;2.136;2023-05-09T10:12:01;101035.25;;;41.04;17.24
61086;BME280;46967;48.876;2.136;2023-05-09T10:14:29;101030.84;;;40.86;17.31
61086;BME280;46967;48.876;2.136;2023-05-09T10:16:56;101024.19;;;40.30;17.89
61086;BME280;46967;48.876;2.136;2023-05-09T10:19:22;101022.50;;;40.52;17.84
61086;BME280;46967;48.876;2.136;2023-05-09T10:21:54;101009.31;;;40.32;18.10
61086;BME280;46967;48.876;2.136;2023-05-09T10:24:26;101015.22;;;41.10;17.47
61086;BME280;46967;48.876;2.136;2023-05-09T10:26:58;101011.19;;;41.42;17.06
61086;BME280;46967;48.876;2.136;2023-05-09T10:29:26;101011.69;;;41.73;17.00
61086;BME280;46967;48.876;2.136;2023-05-09T10:31:58;101008.13;;;41.72;17.29
61086;BME280;46967;48.876;2.136;2023-05-09T10:34:24;101005.03;;;41.18;17.51
61086;BME280;46967;48.876;2.136;2023-05-09T10:36:50;100994.00;;;41.92;16.99
61086;BME280;46967;48.876;2.136;2023-05-09T10:39:16;101006.88;;;41.46;17.26
61086;BME280;46967;48.876;2.136;2023-05-09T10:41:42;101000.03;;;41.94;16.76
61086;BME280;46967;48.876;2.136;2023-05-09T10:44:08;101007.44;;;41.31;17.36
61086;BME280;46967;48.876;2.136;2023-05-09T10:46:34;101004.00;;;42.26;16.70
61086;BME280;46967;48.876;2.136;2023-05-09T10:49:00;101012.31;;;41.63;16.65
61086;BME280;46967;48.876;2.136;2023-05-09T10:51:26;100999.38;;;41.70;17.24
61086;BME280;46967;48.876;2.136;2023-05-09T10:53:52;101004.47;;;42.62;16.41
61086;BME280;46967;48.876;2.136;2023-05-09T10:58:48;100997.91;;;42.18;16.88
61086;BME280;46967;48.876;2.136;2023-05-09T11:01:13;100983.31;;;42.52;16.71
61086;BME280;46967;48.876;2.136;2023-05-09T11:03:56;100987.53;;;42.38;16.61
61086;BME280;46967;48.876;2.136;2023-05-09T11:12:12;100991.50;;;42.52;16.71
61086;BME280;46967;48.876;2.136;2023-05-09T11:14:42;100985.19;;;42.46;16.57
61086;BME280;46967;48.876;2.136;2023-05-09T11:17:14;100989.00;;;42.67;16.42
61086;BME280;46967;48.876;2.136;2023-05-09T11:22:20;100980.69;;;43.06;16.47
61086;BME280;46967;48.876;2.136;2023-05-09T11:24:47;100984.13;;;42.97;16.67
61086;BME280;46967;48.876;2.136;2023-05-09T11:27:24;100984.13;;;42.97;16.59
61086;BME280;46967;48.876;2.136;2023-05-09T11:29:57;100975.91;;;43.24;16.43
61086;BME280;46967;48.876;2.136;2023-05-09T11:32:29;100977.19;;;43.43;16.16
61086;BME280;46967;48.876;2.136;2023-05-09T11:35:08;100984.78;;;43.09;16.34
61086;BME280;46967;48.876;2.136;2023-05-09T11:37:44;100982.34;;;42.58;16.73
61086;BME280;46967;48.876;2.136;2023-05-09T11:40:11;100985.84;;;42.81;16.85
61086;BME280;46967;48.876;2.136;2023-05-09T11:42:41;100971.13;;;43.09;16.78
61086;BME280;46967;48.876;2.136;2023-05-09T11:45:08;100972.53;;;43.44;16.55
61086;BME280;46967;48.876;2.136;2023-05-09T11:47:36;100968.63;;;42.53;17.00
61086;BME280;46967;48.876;2.136;2023-05-09T11:50:01;100966.97;;;43.34;16.41
61086;BME280;46967;48.876;2.136;2023-05-09T11:52:30;100970.34;;;43.46;16.54
61086;BME280;46967;48.876;2.136;2023-05-09T11:54:57;100980.91;;;43.37;16.29
61086;BME280;46967;48.876;2.136;2023-05-09T11:57:23;100976.78;;;43.35;16.48
61086;BME280;46967;48.876;2.136;2023-05-09T11:59:49;100967.94;;;43.50;16.28
61086;BME280;46967;48.876;2.136;2023-05-09T12:02:15;100968.09;;;43.75;16.13
61086;BME280;46967;48.876;2.136;2023-05-09T12:04:40;100967.03;;;43.76;16.52
61086;BME280;46967;48.876;2.136;2023-05-09T12:07:05;100969.06;;;43.21;16.63
61086;BME280;46967;48.876;2.136;2023-05-09T12:09:32;100963.06;;;43.19;16.55
61086;BME280;46967;48.876;2.136;2023-05-09T12:11:59;100970.81;;;43.70;16.39
61086;BME280;46967;48.876;2.136;2023-05-09T12:14:33;100969.03;;;43.96;16.34
61086;BME280;46967;48.876;2.136;2023-05-09T12:16:59;100970.50;;;43.67;16.37
61086;BME280;46967;48.876;2.136;2023-05-09T12:19:25;100974.59;;;44.12;16.11
61086;BME280;46967;48.876;2.136;2023-05-09T12:21:58;100971.16;;;44.37;15.95
61086;BME280;46967;48.876;2.136;2023-05-09T12:24:28;100965.78;;;44.00;16.04
61086;BME280;46967;48.876;2.136;2023-05-09T12:26:58;100968.72;;;44.41;16.07
61086;BME280;46967;48.876;2.136;2023-05-09T12:29:24;100963.22;;;44.36;15.97
61086;BME280;46967;48.876;2.136;2023-05-09T12:31:52;100966.44;;;44.22;16.03
61086;BME280;46967;48.876;2.136;2023-05-09T12:34:17;100969.81;;;43.87;16.09
61086;BME280;46967;48.876;2.136;2023-05-09T12:36:44;100975.38;;;43.59;16.71
61086;BME280;46967;48.876;2.136;2023-05-09T12:39:16;100976.81;;;42.31;17.66
61086;BME280;46967;48.876;2.136;2023-05-09T12:41:45;100971.16;;;43.84;16.61
61086;BME280;46967;48.876;2.136;2023-05-09T12:44:21;100969.75;;;43.06;16.92
61086;BME280;46967;48.876;2.136;2023-05-09T12:46:58;100974.59;;;43.64;16.88
61086;BME280;46967;48.876;2.136;2023-05-09T12:49:24;100974.75;;;43.15;17.05
61086;BME280;46967;48.876;2.136;2023-05-09T12:51:51;100976.44;;;43.96;16.56
61086;BME280;46967;48.876;2.136;2023-05-09T12:54:25;100970.06;;;43.42;17.10
61086;BME280;46967;48.876;2.136;2023-05-09T12:56:51;100965.16;;;44.45;16.10
61086;BME280;46967;48.876;2.136;2023-05-09T12:59:25;100968.56;;;44.78;16.03
61086;BME280;46967;48.876;2.136;2023-05-09T13:01:58;100978.44;;;44.16;16.37
61086;BME280;46967;48.876;2.136;2023-05-09T13:04:25;100972.66;;;44.91;16.20
61086;BME280;46967;48.876;2.136;2023-05-09T13:06:54;100971.88;;;45.01;16.02
61086;BME280;46967;48.876;2.136;2023-05-09T13:09:21;100963.91;;;44.68;15.94